createdAt,value
2018-06-28T21:27:15.948Z,73.27
2018-06-28T21:29:46.696Z,72.15
2018-06-28T21:32:16.649Z,72.93
2018-06-28T21:34:47.421Z,73.15
2018-06-28T21:37:18.501Z,74.24
2018-06-28T21:39:49.671Z,74.37
2018-06-28T21:42:22.428Z,74.67
2018-06-28T21:44:53.564Z,74.54
2018-06-28T21:47:26.463Z,75.54
2018-06-28T21:49:58.218Z,75.92
2018-06-28T21:52:28.735Z,76.06
2018-06-28T21:55:00.641Z,76.34
2018-06-28T21:57:33.318Z,75.12
2018-06-28T22:00:03.724Z,74.85
2018-06-28T22:02:34.244Z,75.67
2018-06-28T22:05:06.409Z,75.81
2018-06-28T22:07:37.005Z,76.31
2018-06-28T22:10:08.793Z,76.46
2018-06-28T22:12:38.977Z,76.13
2018-06-28T22:15:14.235Z,77.04
2018-06-28T22:17:44.529Z,76.42
2018-06-28T22:20:15.177Z,76.74
2018-06-28T22:22:45.214Z,76.74
2018-06-28T22:25:16.066Z,76.89
2018-06-28T22:27:47.008Z,77.03
2018-06-28T22:30:17.793Z,77.06
2018-06-28T22:32:48.861Z,77.02
2018-06-28T22:35:19.544Z,76.01
2018-06-28T22:37:49.918Z,76.73
2018-06-28T22:40:20.453Z,76.53
2018-06-28T22:42:51.479Z,77.59
2018-06-28T22:45:21.965Z,78.39
2018-06-28T22:47:51.991Z,78.74
2018-06-28T22:50:23.131Z,79.03
2018-06-28T22:52:53.541Z,79.30
2018-06-28T22:55:23.872Z,79.24
2018-06-28T22:57:54.791Z,78.26
2018-06-28T23:00:33.304Z,78.54
2018-06-28T23:03:04.150Z,78.03
2018-06-28T23:05:35.918Z,77.63
2018-06-28T23:08:06.408Z,77.73
2018-06-28T23:10:36.909Z,77.31
2018-06-28T23:13:07.300Z,77.55
2018-06-28T23:15:37.484Z,77.29
2018-06-28T23:18:08.468Z,77.69
2018-06-28T23:20:41.145Z,77.65
2018-06-28T23:23:11.757Z,77.34
2018-06-28T23:25:41.889Z,76.71
2018-06-28T23:28:12.651Z,76.95
2018-06-28T23:30:43.140Z,76.90
2018-06-28T23:33:14.826Z,76.78
2018-06-28T23:35:45.289Z,76.77
2018-06-28T23:38:16.614Z,77.03
2018-06-28T23:40:47.208Z,77.02
2018-06-28T23:43:18.060Z,77.64
2018-06-28T23:45:48.112Z,76.80
2018-06-28T23:48:20.249Z,77.62
2018-06-28T23:50:52.022Z,78.14
2018-06-28T23:53:22.292Z,77.84
2018-06-28T23:55:52.279Z,78.28
2018-06-28T23:58:22.860Z,78.18
